sensor_id;sensor_type;location;lat;lon;timestamp;temperature;humidity
4411;DHT22;2218;51.408;7.208;2022-08-03T00:00:53;24.60;51.90
4411;DHT22;2218;51.408;7.208;2022-08-03T00:03:21;24.60;51.90
4411;DHT22;2218;51.408;7.208;2022-08-03T00:05:48;24.60;51.90
4411;DHT22;2218;51.408;7.208;2022-08-03T00:08:15;24.60;51.90
4411;DHT22;2218;51.408;7.208;2022-08-03T00:10:42;24.60;51.90
4411;DHT22;2218;51.408;7.208;2022-08-03T00:13:09;24.60;51.90
4411;DHT22;2218;51.408;7.208;2022-08-03T00:15:38;24.60;51.90
4411;DHT22;2218;51.408;7.208;2022-08-03T00:18:06;24.60;52.00
4411;DHT22;2218;51.408;7.208;2022-08-03T00:20:34;24.60;51.90
4411;DHT22;2218;51.408;7.208;2022-08-03T00:23:02;24.60;52.00
4411;DHT22;2218;51.408;7.208;2022-08-03T00:25:30;24.60;52.00
4411;DHT22;2218;51.408;7.208;2022-08-03T00:27:57;24.60;52.00
4411;DHT22;2218;51.408;7.208;2022-08-03T00:30:24;24.60;52.50
4411;DHT22;2218;51.408;7.208;2022-08-03T00:32:51;24.60;51.90
4411;DHT22;2218;51.408;7.208;2022-08-03T00:35:18;24.60;52.00
4411;DHT22;2218;51.408;7.208;2022-08-03T00:37:46;24.60;52.00
4411;DHT22;2218;51.408;7.208;2022-08-03T00:40:14;24.60;52.00
4411;DHT22;2218;51.408;7.208;2022-08-03T00:42:47;24.60;52.00
4411;DHT22;2218;51.408;7.208;2022-08-03T00:45:15;24.60;52.00
4411;DHT22;2218;51.408;7.208;2022-08-03T00:47:43;24.60;52.00
4411;DHT22;2218;51.408;7.208;2022-08-03T00:50:10;24.60;52.00
4411;DHT22;2218;51.408;7.208;2022-08-03T00:52:38;24.50;51.90
4411;DHT22;2218;51.408;7.208;2022-08-03T00:55:08;24.60;52.00
4411;DHT22;2218;51.408;7.208;2022-08-03T00:57:35;24.60;52.00
4411;DHT22;2218;51.408;7.208;2022-08-03T01:00:04;24.60;52.00
4411;DHT22;2218;51.408;7.208;2022-08-03T01:02:32;24.50;51.90
4411;DHT22;2218;51.408;7.208;2022-08-03T01:05:00;24.60;52.00
4411;DHT22;2218;51.408;7.208;2022-08-03T01:07:36;24.50;51.90
4411;DHT22;2218;51.408;7.208;2022-08-03T01:10:15;24.50;51.90
4411;DHT22;2218;51.408;7.208;2022-08-03T01:12:56;24.50;51.90
4411;DHT22;2218;51.408;7.208;2022-08-03T01:15:34;24.50;52.00
4411;DHT22;2218;51.408;7.208;2022-08-03T01:18:10;24.60;52.00
4411;DHT22;2218;51.408;7.208;2022-08-03T01:20:46;24.50;52.00
4411;DHT22;2218;51.408;7.208;2022-08-03T01:23:38;24.60;52.00
4411;DHT22;2218;51.408;7.208;2022-08-03T01:26:41;24.50;52.00
4411;DHT22;2218;51.408;7.208;2022-08-03T01:29:51;24.50;52.00
4411;DHT22;2218;51.408;7.208;2022-08-03T01:32:30;24.50;52.00
4411;DHT22;2218;51.408;7.208;2022-08-03T01:35:05;24.50;52.00
4411;DHT22;2218;51.408;7.208;2022-08-03T01:37:39;24.50;52.00
4411;DHT22;2218;51.408;7.208;2022-08-03T01:40:11;24.50;52.00
4411;DHT22;2218;51.408;7.208;2022-08-03T01:42:40;24.50;52.00
4411;DHT22;2218;51.408;7.208;2022-08-03T01:45:13;24.50;52.00
4411;DHT22;2218;51.408;7.208;2022-08-03T01:47:43;24.50;52.00
4411;DHT22;2218;51.408;7.208;2022-08-03T01:50:12;24.50;52.00
4411;DHT22;2218;51.408;7.208;2022-08-03T01:52:43;24.50;52.00
4411;DHT22;2218;51.408;7.208;2022-08-03T01:55:12;24.50;52.00
4411;DHT22;2218;51.408;7.208;2022-08-03T01:57:43;24.50;52.00
4411;DHT22;2218;51.408;7.208;2022-08-03T02:00:15;24.50;52.00
4411;DHT22;2218;51.408;7.208;2022-08-03T02:02:46;24.50;52.00
4411;DHT22;2218;51.408;7.208;2022-08-03T02:05:18;24.50;52.00
4411;DHT22;2218;51.408;7.208;2022-08-03T02:07:47;24.50;52.00
4411;DHT22;2218;51.408;7.208;2022-08-03T02:10:18;24.50;52.10
4411;DHT22;2218;51.408;7.208;2022-08-03T02:12:48;24.50;52.00
4411;DHT22;2218;51.408;7.208;2022-08-03T02:15:18;24.50;52.10
4411;DHT22;2218;51.408;7.208;2022-08-03T02:17:46;24.50;52.10
4411;DHT22;2218;51.408;7.208;2022-08-03T02:20:16;24.50;52.00
4411;DHT22;2218;51.408;7.208;2022-08-03T02:22:45;24.50;52.10
4411;DHT22;2218;51.408;7.208;2022-08-03T02:25:14;24.50;52.00
4411;DHT22;2218;51.408;7.208;2022-08-03T02:27:47;24.50;52.10
4411;DHT22;2218;51.408;7.208;2022-08-03T02:30:20;24.50;52.10
4411;DHT22;2218;51.408;7.208;2022-08-03T02:32:54;24.50;52.10
4411;DHT22;2218;51.408;7.208;2022-08-03T02:35:25;24.50;52.10
4411;DHT22;2218;51.408;7.208;2022-08-03T02:37:59;24.50;52.10
4411;DHT22;2218;51.408;7.208;2022-08-03T02:40:30;24.50;52.10
4411;DHT22;2218;51.408;7.208;2022-08-03T02:43:01;24.50;52.60
4411;DHT22;2218;51.408;7.208;2022-08-03T02:45:37;24.50;52.10
4411;DHT22;2218;51.408;7.208;2022-08-03T02:48:10;24.50;52.10
4411;DHT22;2218;51.408;7.208;2022-08-03T02:50:42;24.50;52.10
4411;DHT22;2218;51.408;7.208;2022-08-03T02:53:11;24.50;52.10
4411;DHT22;2218;51.408;7.208;2022-08-03T02:55:40;24.50;52.10
4411;DHT22;2218;51.408;7.208;2022-08-03T02:58:09;24.50;52.10
4411;DHT22;2218;51.408;7.208;2022-08-03T03:00:40;24.50;52.20
4411;DHT22;2218;51.408;7.208;2022-08-03T03:03:10;24.50;52.10
4411;DHT22;2218;51.408;7.208;2022-08-03T03:05:38;24.50;52.10
4411;DHT22;2218;51.408;7.208;2022-08-03T03:08:06;24.50;52.10
4411;DHT22;2218;51.408;7.208;2022-08-03T03:10:35;24.50;52.10
4411;DHT22;2218;51.408;7.208;2022-08-03T03:13:03;24.50;52.10
4411;DHT22;2218;51.408;7.208;2022-08-03T03:15:31;24.50;52.20
4411;DHT22;2218;51.408;7.208;2022-08-03T03:18:03;24.50;52.10
4411;DHT22;2218;51.408;7.208;2022-08-03T03:20:32;24.50;52.20
4411;DHT22;2218;51.408;7.208;2022-08-03T03:23:00;24.50;52.20
4411;DHT22;2218;51.408;7.208;2022-08-03T03:25:29;24.40;52.10
4411;DHT22;2218;51.408;7.208;2022-08-03T03:27:57;24.50;52.20
4411;DHT22;2218;51.408;7.208;2022-08-03T03:30:26;24.50;52.20
4411;DHT22;2218;51.408;7.208;2022-08-03T03:32:53;24.50;52.20
4411;DHT22;2218;51.408;7.208;2022-08-03T03:35:22;24.50;52.20
4411;DHT22;2218;51.408;7.208;2022-08-03T03:37:50;24.50;52.20
4411;DHT22;2218;51.408;7.208;2022-08-03T03:40:17;24.50;52.20
4411;DHT22;2218;51.408;7.208;2022-08-03T03:42:45;24.50;52.20
4411;DHT22;2218;51.408;7.208;2022-08-03T03:45:12;24.40;52.20
4411;DHT22;2218;51.408;7.208;2022-08-03T03:47:40;24.40;52.10
4411;DHT22;2218;51.408;7.208;2022-08-03T03:50:08;24.40;52.10
4411;DHT22;2218;51.408;7.208;2022-08-03T03:52:37;24.40;52.10
4411;DHT22;2218;51.408;7.208;2022-08-03T03:55:04;24.50;52.20
4411;DHT22;2218;51.408;7.208;2022-08-03T03:57:33;24.40;52.10
4411;DHT22;2218;51.408;7.208;2022-08-03T04:00:00;24.40;52.20
4411;DHT22;2218;51.408;7.208;2022-08-03T04:02:30;24.50;52.20
4411;DHT22;2218;51.408;7.208;2022-08-03T04:04:57;24.40;52.20
4411;DHT22;2218;51.408;7.208;2022-08-03T04:07:47;24.40;52.20
4411;DHT22;2218;51.408;7.208;2022-08-03T04:10:40;24.40;52.20
4411;DHT22;2218;51.408;7.208;2022-08-03T04:13:28;24.40;52.20
4411;DHT22;2218;51.408;7.208;2022-08-03T04:16:00;24.40;52.20
4411;DHT22;2218;51.408;7.208;2022-08-03T04:18:31;24.50;52.20
4411;DHT22;2218;51.408;7.208;2022-08-03T04:21:02;24.40;52.20
4411;DHT22;2218;51.408;7.208;2022-08-03T04:23:38;24.40;52.20
4411;DHT22;2218;51.408;7.208;2022-08-03T04:26:10;24.50;52.20
4411;DHT22;2218;51.408;7.208;2022-08-03T04:28:40;24.40;52.20
4411;DHT22;2218;51.408;7.208;2022-08-03T04:31:11;24.50;52.20
4411;DHT22;2218;51.408;7.208;2022-08-03T04:33:42;24.40;52.20
4411;DHT22;2218;51.408;7.208;2022-08-03T04:36:15;24.40;52.20
4411;DHT22;2218;51.408;7.208;2022-08-03T04:38:53;24.40;52.20
4411;DHT22;2218;51.408;7.208;2022-08-03T04:41:27;24.40;52.20
4411;DHT22;2218;51.408;7.208;2022-08-03T04:43:57;24.40;52.20
4411;DHT22;2218;51.408;7.208;2022-08-03T04:46:27;24.50;52.20
4411;DHT22;2218;51.408;7.208;2022-08-03T04:48:57;24.50;52.20
4411;DHT22;2218;51.408;7.208;2022-08-03T04:51:26;24.40;52.20
4411;DHT22;2218;51.408;7.208;2022-08-03T04:53:55;24.50;52.30
4411;DHT22;2218;51.408;7.208;2022-08-03T04:56:22;24.40;52.20
4411;DHT22;2218;51.408;7.208;2022-08-03T04:58:48;24.40;52.20
4411;DHT22;2218;51.408;7.208;2022-08-03T05:01:15;24.40;52.20
4411;DHT22;2218;51.408;7.208;2022-08-03T05:03:44;24.40;52.20
4411;DHT22;2218;51.408;7.208;2022-08-03T05:06:11;24.40;52.20
4411;DHT22;2218;51.408;7.208;2022-08-03T05:08:38;24.40;52.20
4411;DHT22;2218;51.408;7.208;2022-08-03T05:11:07;24.40;52.20
4411;DHT22;2218;51.408;7.208;2022-08-03T05:13:34;24.40;52.20
4411;DHT22;2218;51.408;7.208;2022-08-03T05:16:01;24.40;52.20
4411;DHT22;2218;51.408;7.208;2022-08-03T05:18:28;24.50;52.30
4411;DHT22;2218;51.408;7.208;2022-08-03T05:20:54;24.40;52.20
4411;DHT22;2218;51.408;7.208;2022-08-03T05:23:21;24.40;52.20
4411;DHT22;2218;51.408;7.208;2022-08-03T05:25:48;24.40;52.20
4411;DHT22;2218;51.408;7.208;2022-08-03T05:28:17;24.50;52.20
4411;DHT22;2218;51.408;7.208;2022-08-03T05:30:44;24.40;52.20
4411;DHT22;2218;51.408;7.208;2022-08-03T05:33:11;24.50;52.20
4411;DHT22;2218;51.408;7.208;2022-08-03T05:35:38;24.50;52.20
4411;DHT22;2218;51.408;7.208;2022-08-03T05:38:05;24.50;52.20
4411;DHT22;2218;51.408;7.208;2022-08-03T05:40:32;24.50;52.20
4411;DHT22;2218;51.408;7.208;2022-08-03T05:43:00;24.50;52.20
4411;DHT22;2218;51.408;7.208;2022-08-03T05:45:28;24.50;52.30
4411;DHT22;2218;51.408;7.208;2022-08-03T05:47:55;24.50;52.20
4411;DHT22;2218;51.408;7.208;2022-08-03T05:50:22;24.50;52.20
4411;DHT22;2218;51.408;7.208;2022-08-03T05:52:49;24.50;52.10
4411;DHT22;2218;51.408;7.208;2022-08-03T05:55:16;24.50;52.10
4411;DHT22;2218;51.408;7.208;2022-08-03T05:57:45;24.50;52.10
4411;DHT22;2218;51.408;7.208;2022-08-03T06:00:13;24.60;52.20
4411;DHT22;2218;51.408;7.208;2022-08-03T06:02:42;24.50;52.10
4411;DHT22;2218;51.408;7.208;2022-08-03T06:05:10;24.50;52.00
4411;DHT22;2218;51.408;7.208;2022-08-03T06:07:37;24.60;52.10
4411;DHT22;2218;51.408;7.208;2022-08-03T06:10:04;24.60;52.10
4411;DHT22;2218;51.408;7.208;2022-08-03T06:12:33;24.60;52.10
4411;DHT22;2218;51.408;7.208;2022-08-03T06:15:01;24.60;52.00
4411;DHT22;2218;51.408;7.208;2022-08-03T06:17:29;24.60;52.00
4411;DHT22;2218;51.408;7.208;2022-08-03T06:19:57;24.60;51.80
4411;DHT22;2218;51.408;7.208;2022-08-03T06:22:24;24.60;51.80
4411;DHT22;2218;51.408;7.208;2022-08-03T06:24:51;24.70;51.80
4411;DHT22;2218;51.408;7.208;2022-08-03T06:27:18;24.70;51.80
4411;DHT22;2218;51.408;7.208;2022-08-03T06:29:45;24.70;51.80
4411;DHT22;2218;51.408;7.208;2022-08-03T06:32:12;24.70;51.80
4411;DHT22;2218;51.408;7.208;2022-08-03T06:34:39;24.70;51.70
4411;DHT22;2218;51.408;7.208;2022-08-03T06:37:07;24.70;51.70
4411;DHT22;2218;51.408;7.208;2022-08-03T06:39:34;24.70;51.60
4411;DHT22;2218;51.408;7.208;2022-08-03T06:42:01;24.70;51.60
4411;DHT22;2218;51.408;7.208;2022-08-03T06:44:29;24.70;51.60
4411;DHT22;2218;51.408;7.208;2022-08-03T06:46:56;24.70;51.60
4411;DHT22;2218;51.408;7.208;2022-08-03T06:49:23;24.80;51.80
4411;DHT22;2218;51.408;7.208;2022-08-03T06:51:50;24.80;51.70
4411;DHT22;2218;51.408;7.208;2022-08-03T06:54:19;24.80;51.80
4411;DHT22;2218;51.408;7.208;2022-08-03T06:56:48;24.80;51.80
4411;DHT22;2218;51.408;7.208;2022-08-03T06:59:15;24.80;51.80
4411;DHT22;2218;51.408;7.208;2022-08-03T07:01:42;24.80;51.80
4411;DHT22;2218;51.408;7.208;2022-08-03T07:04:09;24.80;51.80
4411;DHT22;2218;51.408;7.208;2022-08-03T07:06:36;24.80;51.70
4411;DHT22;2218;51.408;7.208;2022-08-03T07:09:04;24.90;51.90
4411;DHT22;2218;51.408;7.208;2022-08-03T07:11:32;24.90;51.90
4411;DHT22;2218;51.408;7.208;2022-08-03T07:13:59;24.90;51.90
4411;DHT22;2218;51.408;7.208;2022-08-03T07:16:26;24.90;52.00
4411;DHT22;2218;51.408;7.208;2022-08-03T07:18:53;24.90;51.90
4411;DHT22;2218;51.408;7.208;2022-08-03T07:21:20;24.90;51.90
4411;DHT22;2218;51.408;7.208;2022-08-03T07:23:47;24.90;52.00
4411;DHT22;2218;51.408;7.208;2022-08-03T07:26:14;24.90;52.00
4411;DHT22;2218;51.408;7.208;2022-08-03T07:28:42;24.90;52.00
4411;DHT22;2218;51.408;7.208;2022-08-03T07:31:09;24.90;52.00
4411;DHT22;2218;51.408;7.208;2022-08-03T07:33:36;24.90;52.00
4411;DHT22;2218;51.408;7.208;2022-08-03T07:36:03;24.90;52.00
4411;DHT22;2218;51.408;7.208;2022-08-03T07:38:30;25.00;52.10
4411;DHT22;2218;51.408;7.208;2022-08-03T07:40:57;25.00;52.10
4411;DHT22;2218;51.408;7.208;2022-08-03T07:43:24;25.00;52.10
4411;DHT22;2218;51.408;7.208;2022-08-03T07:45:52;25.00;52.10
4411;DHT22;2218;51.408;7.208;2022-08-03T07:48:19;25.00;52.10
4411;DHT22;2218;51.408;7.208;2022-08-03T07:50:47;25.00;52.20
4411;DHT22;2218;51.408;7.208;2022-08-03T07:53:15;25.00;52.10
4411;DHT22;2218;51.408;7.208;2022-08-03T07:55:42;25.00;52.20
4411;DHT22;2218;51.408;7.208;2022-08-03T07:58:11;25.00;52.10
4411;DHT22;2218;51.408;7.208;2022-08-03T08:00:40;25.00;52.20
4411;DHT22;2218;51.408;7.208;2022-08-03T08:03:10;25.00;52.20
4411;DHT22;2218;51.408;7.208;2022-08-03T08:05:38;25.00;52.20
4411;DHT22;2218;51.408;7.208;2022-08-03T08:08:05;25.00;52.20
4411;DHT22;2218;51.408;7.208;2022-08-03T08:10:33;25.00;52.20
4411;DHT22;2218;51.408;7.208;2022-08-03T08:13:01;25.00;52.20
4411;DHT22;2218;51.408;7.208;2022-08-03T08:15:29;25.10;52.30
4411;DHT22;2218;51.408;7.208;2022-08-03T08:17:58;25.00;52.20
4411;DHT22;2218;51.408;7.208;2022-08-03T08:20:29;25.00;52.20
4411;DHT22;2218;51.408;7.208;2022-08-03T08:22:58;25.10;52.30
4411;DHT22;2218;51.408;7.208;2022-08-03T08:25:28;25.10;52.30
4411;DHT22;2218;51.408;7.208;2022-08-03T08:27:56;25.10;52.30
4411;DHT22;2218;51.408;7.208;2022-08-03T08:30:26;25.10;52.20
4411;DHT22;2218;51.408;7.208;2022-08-03T08:32:53;25.10;52.20
4411;DHT22;2218;51.408;7.208;2022-08-03T08:35:20;25.10;52.30
4411;DHT22;2218;51.408;7.208;2022-08-03T08:37:48;25.10;52.30
4411;DHT22;2218;51.408;7.208;2022-08-03T08:40:17;25.10;52.20
4411;DHT22;2218;51.408;7.208;2022-08-03T08:42:47;25.10;52.30
4411;DHT22;2218;51.408;7.208;2022-08-03T08:45:17;25.10;52.30
4411;DHT22;2218;51.408;7.208;2022-08-03T08:47:45;25.20;52.40
4411;DHT22;2218;51.408;7.208;2022-08-03T08:50:15;25.10;52.30
4411;DHT22;2218;51.408;7.208;2022-08-03T08:52:48;25.10;52.30
4411;DHT22;2218;51.408;7.208;2022-08-03T08:55:20;25.20;52.40
4411;DHT22;2218;51.408;7.208;2022-08-03T08:57:51;25.10;52.30
4411;DHT22;2218;51.408;7.208;2022-08-03T09:00:24;25.10;52.40
4411;DHT22;2218;51.408;7.208;2022-08-03T09:02:51;25.10;52.20
4411;DHT22;2218;51.408;7.208;2022-08-03T09:05:19;25.10;52.30
4411;DHT22;2218;51.408;7.208;2022-08-03T09:07:48;25.20;52.90
4411;DHT22;2218;51.408;7.208;2022-08-03T09:10:16;25.20;52.30
4411;DHT22;2218;51.408;7.208;2022-08-03T09:12:48;25.20;52.40
4411;DHT22;2218;51.408;7.208;2022-08-03T09:15:20;25.20;52.40
4411;DHT22;2218;51.408;7.208;2022-08-03T09:17:50;25.20;52.40
4411;DHT22;2218;51.408;7.208;2022-08-03T09:20:19;25.20;52.40
4411;DHT22;2218;51.408;7.208;2022-08-03T09:22:58;25.20;52.40
4411;DHT22;2218;51.408;7.208;2022-08-03T09:25:29;25.20;52.30
4411;DHT22;2218;51.408;7.208;2022-08-03T09:28:06;25.20;52.40
4411;DHT22;2218;51.408;7.208;2022-08-03T09:30:36;25.20;52.40
4411;DHT22;2218;51.408;7.208;2022-08-03T09:33:05;25.20;52.40
4411;DHT22;2218;51.408;7.208;2022-08-03T09:35:39;25.20;52.40
4411;DHT22;2218;51.408;7.208;2022-08-03T09:38:13;25.20;52.40
4411;DHT22;2218;51.408;7.208;2022-08-03T09:40:43;25.20;52.30
4411;DHT22;2218;51.408;7.208;2022-08-03T09:43:11;25.20;52.40
4411;DHT22;2218;51.408;7.208;2022-08-03T09:45:39;25.20;52.50
4411;DHT22;2218;51.408;7.208;2022-08-03T09:48:26;25.20;52.40
4411;DHT22;2218;51.408;7.208;2022-08-03T09:50:56;25.20;52.30
4411;DHT22;2218;51.408;7.208;2022-08-03T09:53:26;25.20;52.40
4411;DHT22;2218;51.408;7.208;2022-08-03T09:55:55;25.20;52.40
4411;DHT22;2218;51.408;7.208;2022-08-03T09:58:23;25.20;52.40
4411;DHT22;2218;51.408;7.208;2022-08-03T10:00:56;25.20;52.40
4411;DHT22;2218;51.408;7.208;2022-08-03T10:03:26;25.20;52.40
4411;DHT22;2218;51.408;7.208;2022-08-03T10:05:54;25.20;52.40
4411;DHT22;2218;51.408;7.208;2022-08-03T10:08:22;25.20;52.40
4411;DHT22;2218;51.408;7.208;2022-08-03T10:10:52;25.20;52.40
4411;DHT22;2218;51.408;7.208;2022-08-03T10:13:23;25.20;53.00
4411;DHT22;2218;51.408;7.208;2022-08-03T10:15:50;25.20;52.40
4411;DHT22;2218;51.408;7.208;2022-08-03T10:18:17;25.20;52.40
4411;DHT22;2218;51.408;7.208;2022-08-03T10:20:49;25.20;52.40
4411;DHT22;2218;51.408;7.208;2022-08-03T10:23:18;25.20;52.40
4411;DHT22;2218;51.408;7.208;2022-08-03T10:25:51;25.20;52.40
4411;DHT22;2218;51.408;7.208;2022-08-03T10:28:24;25.20;52.40
4411;DHT22;2218;51.408;7.208;2022-08-03T10:30:52;25.20;52.30
4411;DHT22;2218;51.408;7.208;2022-08-03T10:33:23;25.20;52.30
4411;DHT22;2218;51.408;7.208;2022-08-03T10:35:56;25.20;52.30
4411;DHT22;2218;51.408;7.208;2022-08-03T10:38:28;25.20;52.30
4411;DHT22;2218;51.408;7.208;2022-08-03T10:41:02;25.20;52.30
4411;DHT22;2218;51.408;7.208;2022-08-03T10:43:37;25.20;52.30
4411;DHT22;2218;51.408;7.208;2022-08-03T10:46:14;25.20;52.30
4411;DHT22;2218;51.408;7.208;2022-08-03T10:48:45;25.20;52.30
4411;DHT22;2218;51.408;7.208;2022-08-03T10:51:14;25.20;52.30
4411;DHT22;2218;51.408;7.208;2022-08-03T10:53:42;25.20;52.30
4411;DHT22;2218;51.408;7.208;2022-08-03T10:56:38;25.20;52.20
4411;DHT22;2218;51.408;7.208;2022-08-03T10:59:57;25.20;52.20
4411;DHT22;2218;51.408;7.208;2022-08-03T11:03:02;25.20;52.20
4411;DHT22;2218;51.408;7.208;2022-08-03T11:05:38;25.30;52.20
4411;DHT22;2218;51.408;7.208;2022-08-03T11:08:33;25.20;52.10
4411;DHT22;2218;51.408;7.208;2022-08-03T11:14:01;25.20;52.20
4411;DHT22;2218;51.408;7.208;2022-08-03T11:16:32;25.20;52.10
4411;DHT22;2218;51.408;7.208;2022-08-03T11:19:01;25.20;52.10
4411;DHT22;2218;51.408;7.208;2022-08-03T11:21:52;25.20;52.10
4411;DHT22;2218;51.408;7.208;2022-08-03T11:24:57;25.30;52.10
4411;DHT22;2218;51.408;7.208;2022-08-03T11:27:29;25.20;52.10
4411;DHT22;2218;51.408;7.208;2022-08-03T11:30:02;25.30;52.20
4411;DHT22;2218;51.408;7.208;2022-08-03T11:32:51;25.20;52.20
4411;DHT22;2218;51.408;7.208;2022-08-03T11:35:22;25.20;52.10
4411;DHT22;2218;51.408;7.208;2022-08-03T11:38:07;25.30;52.20
4411;DHT22;2218;51.408;7.208;2022-08-03T11:40:38;25.30;52.20
4411;DHT22;2218;51.408;7.208;2022-08-03T11:43:09;25.30;52.20
4411;DHT22;2218;51.408;7.208;2022-08-03T11:46:02;25.30;52.20
4411;DHT22;2218;51.408;7.208;2022-08-03T11:48:34;25.30;52.20
4411;DHT22;2218;51.408;7.208;2022-08-03T11:51:04;25.30;52.20
4411;DHT22;2218;51.408;7.208;2022-08-03T11:53:33;25.30;52.20
4411;DHT22;2218;51.408;7.208;2022-08-03T11:56:01;25.30;52.20
4411;DHT22;2218;51.408;7.208;2022-08-03T11:58:28;25.30;52.20
4411;DHT22;2218;51.408;7.208;2022-08-03T12:01:04;25.30;52.20
4411;DHT22;2218;51.408;7.208;2022-08-03T12:03:33;25.30;52.10
4411;DHT22;2218;51.408;7.208;2022-08-03T12:06:01;25.30;52.10
4411;DHT22;2218;51.408;7.208;2022-08-03T12:08:31;25.30;52.10
4411;DHT22;2218;51.408;7.208;2022-08-03T12:11:00;25.30;52.10
4411;DHT22;2218;51.408;7.208;2022-08-03T12:13:38;25.30;52.10
4411;DHT22;2218;51.408;7.208;2022-08-03T12:16:08;25.30;52.20
4411;DHT22;2218;51.408;7.208;2022-08-03T12:18:36;25.30;52.20
4411;DHT22;2218;51.408;7.208;2022-08-03T12:21:05;25.30;52.10
4411;DHT22;2218;51.408;7.208;2022-08-03T12:23:34;25.30;52.20
4411;DHT22;2218;51.408;7.208;2022-08-03T12:26:06;25.30;52.20
4411;DHT22;2218;51.408;7.208;2022-08-03T12:28:35;25.30;52.20
4411;DHT22;2218;51.408;7.208;2022-08-03T12:31:04;25.30;52.20
4411;DHT22;2218;51.408;7.208;2022-08-03T12:33:54;25.30;52.20
4411;DHT22;2218;51.408;7.208;2022-08-03T12:36:23;25.30;52.20
4411;DHT22;2218;51.408;7.208;2022-08-03T12:38:54;25.30;52.20
4411;DHT22;2218;51.408;7.208;2022-08-03T12:41:31;25.30;52.20
4411;DHT22;2218;51.408;7.208;2022-08-03T12:44:00;25.30;52.30
4411;DHT22;2218;51.408;7.208;2022-08-03T12:46:33;25.30;52.30
4411;DHT22;2218;51.408;7.208;2022-08-03T12:49:08;25.40;52.30
4411;DHT22;2218;51.408;7.208;2022-08-03T12:51:42;25.30;52.30
4411;DHT22;2218;51.408;7.208;2022-08-03T12:54:24;25.40;52.30
4411;DHT22;2218;51.408;7.208;2022-08-03T12:56:59;25.40;52.30
4411;DHT22;2218;51.408;7.208;2022-08-03T12:59:28;25.40;52.30
4411;DHT22;2218;51.408;7.208;2022-08-03T13:01:56;25.40;52.20
4411;DHT22;2218;51.408;7.208;2022-08-03T13:04:29;25.40;52.20
4411;DHT22;2218;51.408;7.208;2022-08-03T13:06:59;25.40;52.30
4411;DHT22;2218;51.408;7.208;2022-08-03T13:09:27;25.40;52.20
4411;DHT22;2218;51.408;7.208;2022-08-03T13:12:06;25.40;52.20
4411;DHT22;2218;51.408;7.208;2022-08-03T13:14:35;25.40;52.30
4411;DHT22;2218;51.408;7.208;2022-08-03T13:17:03;25.40;52.30
4411;DHT22;2218;51.408;7.208;2022-08-03T13:19:32;25.40;52.20
4411;DHT22;2218;51.408;7.208;2022-08-03T13:21:59;25.40;52.20
4411;DHT22;2218;51.408;7.208;2022-08-03T13:24:27;25.40;52.20
4411;DHT22;2218;51.408;7.208;2022-08-03T13:26:55;25.40;52.20
4411;DHT22;2218;51.408;7.208;2022-08-03T13:29:21;25.40;52.20
4411;DHT22;2218;51.408;7.208;2022-08-03T13:31:48;25.40;52.20
4411;DHT22;2218;51.408;7.208;2022-08-03T13:34:15;25.40;52.10
4411;DHT22;2218;51.408;7.208;2022-08-03T13:36:45;25.40;52.20
4411;DHT22;2218;51.408;7.208;2022-08-03T13:39:11;25.40;52.20
4411;DHT22;2218;51.408;7.208;2022-08-03T13:41:38;25.40;52.20
4411;DHT22;2218;51.408;7.208;2022-08-03T13:44:05;25.40;52.10
4411;DHT22;2218;51.408;7.208;2022-08-03T13:46:32;25.40;52.20
4411;DHT22;2218;51.408;7.208;2022-08-03T13:48:59;25.40;52.20
4411;DHT22;2218;51.408;7.208;2022-08-03T13:51:26;25.40;52.20
4411;DHT22;2218;51.408;7.208;2022-08-03T13:53:55;25.40;52.20
4411;DHT22;2218;51.408;7.208;2022-08-03T13:56:24;25.40;52.20
4411;DHT22;2218;51.408;7.208;2022-08-03T13:58:51;25.40;52.20
4411;DHT22;2218;51.408;7.208;2022-08-03T14:01:18;25.40;52.20
4411;DHT22;2218;51.408;7.208;2022-08-03T14:03:45;25.40;52.10
4411;DHT22;2218;51.408;7.208;2022-08-03T14:06:13;25.40;52.10
4411;DHT22;2218;51.408;7.208;2022-08-03T14:08:40;25.40;52.00
4411;DHT22;2218;51.408;7.208;2022-08-03T14:11:08;25.40;52.20
4411;DHT22;2218;51.408;7.208;2022-08-03T14:13:35;25.50;52.20
4411;DHT22;2218;51.408;7.208;2022-08-03T14:16:03;25.50;52.20
4411;DHT22;2218;51.408;7.208;2022-08-03T14:18:30;25.50;52.20
4411;DHT22;2218;51.408;7.208;2022-08-03T14:20:58;25.50;52.20
4411;DHT22;2218;51.408;7.208;2022-08-03T14:23:26;25.50;52.20
4411;DHT22;2218;51.408;7.208;2022-08-03T14:25:53;25.50;52.20
4411;DHT22;2218;51.408;7.208;2022-08-03T14:28:22;25.50;52.20
4411;DHT22;2218;51.408;7.208;2022-08-03T14:30:50;25.50;52.10
4411;DHT22;2218;51.408;7.208;2022-08-03T14:33:18;25.50;52.20
4411;DHT22;2218;51.408;7.208;2022-08-03T14:35:45;25.50;52.10
4411;DHT22;2218;51.408;7.208;2022-08-03T14:38:13;25.50;52.20
4411;DHT22;2218;51.408;7.208;2022-08-03T14:40:40;25.50;52.20
4411;DHT22;2218;51.408;7.208;2022-08-03T14:43:08;25.50;52.10
4411;DHT22;2218;51.408;7.208;2022-08-03T14:45:37;25.50;52.20
4411;DHT22;2218;51.408;7.208;2022-08-03T14:48:05;25.50;52.20
4411;DHT22;2218;51.408;7.208;2022-08-03T14:50:33;25.50;52.20
4411;DHT22;2218;51.408;7.208;2022-08-03T14:53:00;25.50;52.20
4411;DHT22;2218;51.408;7.208;2022-08-03T14:55:27;25.50;52.10
4411;DHT22;2218;51.408;7.208;2022-08-03T14:57:54;25.50;52.10
4411;DHT22;2218;51.408;7.208;2022-08-03T15:00:21;25.50;52.10
4411;DHT22;2218;51.408;7.208;2022-08-03T15:02:49;25.50;52.10
4411;DHT22;2218;51.408;7.208;2022-08-03T15:05:16;25.50;52.10
4411;DHT22;2218;51.408;7.208;2022-08-03T15:07:43;25.50;52.10
4411;DHT22;2218;51.408;7.208;2022-08-03T15:10:10;25.50;52.10
4411;DHT22;2218;51.408;7.208;2022-08-03T15:12:37;25.50;52.10
4411;DHT22;2218;51.408;7.208;2022-08-03T15:15:05;25.50;52.10
4411;DHT22;2218;51.408;7.208;2022-08-03T15:17:32;25.50;52.10
4411;DHT22;2218;51.408;7.208;2022-08-03T15:20:01;25.50;52.00
4411;DHT22;2218;51.408;7.208;2022-08-03T15:22:28;25.50;52.10
4411;DHT22;2218;51.408;7.208;2022-08-03T15:24:55;25.50;52.10
4411;DHT22;2218;51.408;7.208;2022-08-03T15:27:22;25.50;52.00
4411;DHT22;2218;51.408;7.208;2022-08-03T15:29:49;25.50;52.00
4411;DHT22;2218;51.408;7.208;2022-08-03T15:32:16;25.50;52.00
4411;DHT22;2218;51.408;7.208;2022-08-03T15:34:43;25.50;52.00
4411;DHT22;2218;51.408;7.208;2022-08-03T15:37:13;25.50;52.00
4411;DHT22;2218;51.408;7.208;2022-08-03T15:39:40;25.50;52.00
4411;DHT22;2218;51.408;7.208;2022-08-03T15:42:07;25.60;52.00
4411;DHT22;2218;51.408;7.208;2022-08-03T15:44:34;25.50;52.00
4411;DHT22;2218;51.408;7.208;2022-08-03T15:47:01;25.60;52.00
4411;DHT22;2218;51.408;7.208;2022-08-03T15:49:28;25.50;52.00
4411;DHT22;2218;51.408;7.208;2022-08-03T15:51:55;25.50;52.00
4411;DHT22;2218;51.408;7.208;2022-08-03T15:54:23;25.50;52.00
4411;DHT22;2218;51.408;7.208;2022-08-03T15:56:50;25.50;52.10
4411;DHT22;2218;51.408;7.208;2022-08-03T15:59:18;25.50;52.10
4411;DHT22;2218;51.408;7.208;2022-08-03T16:01:45;25.50;52.10
4411;DHT22;2218;51.408;7.208;2022-08-03T16:04:13;25.50;52.10
4411;DHT22;2218;51.408;7.208;2022-08-03T16:06:40;25.60;52.10
4411;DHT22;2218;51.408;7.208;2022-08-03T16:09:07;25.60;52.10
4411;DHT22;2218;51.408;7.208;2022-08-03T16:11:36;25.60;52.10
4411;DHT22;2218;51.408;7.208;2022-08-03T16:14:03;25.60;52.10
4411;DHT22;2218;51.408;7.208;2022-08-03T16:16:30;25.60;52.10
4411;DHT22;2218;51.408;7.208;2022-08-03T16:18:57;25.60;52.10
4411;DHT22;2218;51.408;7.208;2022-08-03T16:21:23;25.60;52.20
4411;DHT22;2218;51.408;7.208;2022-08-03T16:23:50;25.60;52.20